sensor_id;sensor_type;location;lat;lon;timestamp;temperature;humidity
25450;DHT22;13371;52.080;5.624;2023-03-25T00:02:06;11.50;99.90
25450;DHT22;13371;52.080;5.624;2023-03-25T00:04:32;11.70;99.90
25450;DHT22;13371;52.080;5.624;2023-03-25T00:06:59;11.70;99.90
25450;DHT22;13371;52.080;5.624;2023-03-25T00:09:25;11.60;99.90
25450;DHT22;13371;52.080;5.624;2023-03-25T00:11:51;11.40;99.90
25450;DHT22;13371;52.080;5.624;2023-03-25T00:14:17;11.30;99.90
25450;DHT22;13371;52.080;5.624;2023-03-25T00:16:43;11.30;99.90
25450;DHT22;13371;52.080;5.624;2023-03-25T00:19:15;11.30;99.90
25450;DHT22;13371;52.080;5.624;2023-03-25T00:21:41;11.40;99.90
25450;DHT22;13371;52.080;5.624;2023-03-25T00:24:10;11.40;99.90
25450;DHT22;13371;52.080;5.624;2023-03-25T00:26:46;11.50;99.90
25450;DHT22;13371;52.080;5.624;2023-03-25T00:29:14;11.30;99.90
25450;DHT22;13371;52.080;5.624;2023-03-25T00:31:40;11.30;99.90
25450;DHT22;13371;52.080;5.624;2023-03-25T00:34:06;11.50;99.90
25450;DHT22;13371;52.080;5.624;2023-03-25T00:36:33;11.30;99.90
25450;DHT22;13371;52.080;5.624;2023-03-25T00:39:05;11.50;99.90
25450;DHT22;13371;52.080;5.624;2023-03-25T00:41:31;11.40;99.90
25450;DHT22;13371;52.080;5.624;2023-03-25T00:43:59;11.20;99.90
25450;DHT22;13371;52.080;5.624;2023-03-25T00:46:27;11.20;99.90
25450;DHT22;13371;52.080;5.624;2023-03-25T00:48:54;11.20;99.90
25450;DHT22;13371;52.080;5.624;2023-03-25T00:51:20;11.20;99.90
25450;DHT22;13371;52.080;5.624;2023-03-25T00:53:54;11.20;99.90
25450;DHT22;13371;52.080;5.624;2023-03-25T00:56:21;11.10;99.90
25450;DHT22;13371;52.080;5.624;2023-03-25T00:58:47;11.20;99.90
25450;DHT22;13371;52.080;5.624;2023-03-25T01:01:15;11.20;99.90
25450;DHT22;13371;52.080;5.624;2023-03-25T01:03:42;11.10;99.90
25450;DHT22;13371;52.080;5.624;2023-03-25T01:06:12;11.10;99.90
25450;DHT22;13371;52.080;5.624;2023-03-25T01:08:40;11.00;99.90
25450;DHT22;13371;52.080;5.624;2023-03-25T01:11:13;10.90;99.90
25450;DHT22;13371;52.080;5.624;2023-03-25T01:13:40;10.90;99.90
25450;DHT22;13371;52.080;5.624;2023-03-25T01:16:06;11.10;99.90
25450;DHT22;13371;52.080;5.624;2023-03-25T01:18:32;11.20;99.90
25450;DHT22;13371;52.080;5.624;2023-03-25T01:21:03;11.40;99.90
25450;DHT22;13371;52.080;5.624;2023-03-25T01:23:28;11.30;99.90
25450;DHT22;13371;52.080;5.624;2023-03-25T01:25:54;11.20;99.90
25450;DHT22;13371;52.080;5.624;2023-03-25T01:28:20;11.10;99.90
25450;DHT22;13371;52.080;5.624;2023-03-25T01:30:45;11.10;99.90
25450;DHT22;13371;52.080;5.624;2023-03-25T01:33:11;11.20;99.90
25450;DHT22;13371;52.080;5.624;2023-03-25T01:35:36;11.20;99.90
25450;DHT22;13371;52.080;5.624;2023-03-25T01:38:02;11.20;99.90
25450;DHT22;13371;52.080;5.624;2023-03-25T01:40:29;11.20;99.90
25450;DHT22;13371;52.080;5.624;2023-03-25T01:42:54;11.10;99.90
25450;DHT22;13371;52.080;5.624;2023-03-25T01:45:29;11.10;99.90
25450;DHT22;13371;52.080;5.624;2023-03-25T01:48:09;11.00;99.90
25450;DHT22;13371;52.080;5.624;2023-03-25T01:50:42;11.00;99.90
25450;DHT22;13371;52.080;5.624;2023-03-25T01:53:09;11.10;99.90
25450;DHT22;13371;52.080;5.624;2023-03-25T01:55:36;11.10;99.90
25450;DHT22;13371;52.080;5.624;2023-03-25T01:58:05;11.20;99.90
25450;DHT22;13371;52.080;5.624;2023-03-25T02:00:34;11.30;99.90
25450;DHT22;13371;52.080;5.624;2023-03-25T02:03:02;11.20;99.90
25450;DHT22;13371;52.080;5.624;2023-03-25T02:08:03;11.10;99.90
25450;DHT22;13371;52.080;5.624;2023-03-25T02:10:30;10.90;99.90
25450;DHT22;13371;52.080;5.624;2023-03-25T02:12:57;10.70;99.90
25450;DHT22;13371;52.080;5.624;2023-03-25T02:15:23;10.40;99.90
25450;DHT22;13371;52.080;5.624;2023-03-25T02:23:30;10.50;99.90
25450;DHT22;13371;52.080;5.624;2023-03-25T02:29:07;10.70;99.90
25450;DHT22;13371;52.080;5.624;2023-03-25T02:34:48;10.90;99.90
25450;DHT22;13371;52.080;5.624;2023-03-25T02:40:08;10.60;99.90
25450;DHT22;13371;52.080;5.624;2023-03-25T02:43:03;10.70;99.90
25450;DHT22;13371;52.080;5.624;2023-03-25T02:45:36;10.60;99.90
25450;DHT22;13371;52.080;5.624;2023-03-25T02:48:09;10.60;99.90
25450;DHT22;13371;52.080;5.624;2023-03-25T02:50:44;10.70;99.90
25450;DHT22;13371;52.080;5.624;2023-03-25T02:53:17;10.60;99.90
25450;DHT22;13371;52.080;5.624;2023-03-25T02:55:45;10.60;99.90
25450;DHT22;13371;52.080;5.624;2023-03-25T02:58:13;10.40;99.90
25450;DHT22;13371;52.080;5.624;2023-03-25T03:00:41;10.70;99.90
25450;DHT22;13371;52.080;5.624;2023-03-25T03:03:07;10.70;99.90
25450;DHT22;13371;52.080;5.624;2023-03-25T03:05:41;10.60;99.90
25450;DHT22;13371;52.080;5.624;2023-03-25T03:13:39;10.50;99.90
25450;DHT22;13371;52.080;5.624;2023-03-25T03:16:41;10.70;99.90
25450;DHT22;13371;52.080;5.624;2023-03-25T03:19:39;10.70;99.90
25450;DHT22;13371;52.080;5.624;2023-03-25T03:25:35;10.30;99.90
25450;DHT22;13371;52.080;5.624;2023-03-25T03:28:16;10.30;99.90
25450;DHT22;13371;52.080;5.624;2023-03-25T03:30:51;10.20;99.90
25450;DHT22;13371;52.080;5.624;2023-03-25T03:33:36;10.30;99.90
25450;DHT22;13371;52.080;5.624;2023-03-25T03:36:14;10.30;99.90
25450;DHT22;13371;52.080;5.624;2023-03-25T03:39:04;10.30;99.90
25450;DHT22;13371;52.080;5.624;2023-03-25T03:41:37;10.30;99.90
25450;DHT22;13371;52.080;5.624;2023-03-25T03:44:14;10.30;99.90
25450;DHT22;13371;52.080;5.624;2023-03-25T03:46:49;10.40;99.90
25450;DHT22;13371;52.080;5.624;2023-03-25T03:49:23;10.20;99.90
25450;DHT22;13371;52.080;5.624;2023-03-25T03:52:13;10.50;99.90
25450;DHT22;13371;52.080;5.624;2023-03-25T03:55:06;10.40;99.90
25450;DHT22;13371;52.080;5.624;2023-03-25T03:57:44;10.50;99.90
25450;DHT22;13371;52.080;5.624;2023-03-25T04:00:19;10.50;99.90
25450;DHT22;13371;52.080;5.624;2023-03-25T04:02:56;10.50;99.90
25450;DHT22;13371;52.080;5.624;2023-03-25T04:05:25;10.70;99.90
25450;DHT22;13371;52.080;5.624;2023-03-25T04:08:00;10.60;99.90
25450;DHT22;13371;52.080;5.624;2023-03-25T04:10:42;10.70;99.90
25450;DHT22;13371;52.080;5.624;2023-03-25T04:13:13;10.80;99.90
25450;DHT22;13371;52.080;5.624;2023-03-25T04:15:41;10.70;99.90
25450;DHT22;13371;52.080;5.624;2023-03-25T04:18:07;10.70;99.90
25450;DHT22;13371;52.080;5.624;2023-03-25T04:20:34;10.70;99.90
25450;DHT22;13371;52.080;5.624;2023-03-25T04:23:01;10.80;99.90
25450;DHT22;13371;52.080;5.624;2023-03-25T04:25:29;11.00;99.90
25450;DHT22;13371;52.080;5.624;2023-03-25T04:27:57;11.00;99.90
25450;DHT22;13371;52.080;5.624;2023-03-25T04:30:24;10.70;99.90
25450;DHT22;13371;52.080;5.624;2023-03-25T04:32:51;10.90;99.90
25450;DHT22;13371;52.080;5.624;2023-03-25T04:35:18;10.80;99.90
25450;DHT22;13371;52.080;5.624;2023-03-25T04:37:44;10.80;99.90
25450;DHT22;13371;52.080;5.624;2023-03-25T04:40:11;10.60;99.90
25450;DHT22;13371;52.080;5.624;2023-03-25T04:42:38;10.50;99.90
25450;DHT22;13371;52.080;5.624;2023-03-25T04:45:07;10.50;99.90
25450;DHT22;13371;52.080;5.624;2023-03-25T04:47:33;10.60;99.90
25450;DHT22;13371;52.080;5.624;2023-03-25T04:49:59;10.20;99.90
25450;DHT22;13371;52.080;5.624;2023-03-25T04:52:26;10.10;99.90
25450;DHT22;13371;52.080;5.624;2023-03-25T04:54:51;10.00;99.90
25450;DHT22;13371;52.080;5.624;2023-03-25T04:57:17;10.20;99.90
25450;DHT22;13371;52.080;5.624;2023-03-25T04:59:44;10.20;99.90
25450;DHT22;13371;52.080;5.624;2023-03-25T05:02:11;10.10;99.90
25450;DHT22;13371;52.080;5.624;2023-03-25T05:04:39;10.40;99.90
25450;DHT22;13371;52.080;5.624;2023-03-25T05:07:11;10.60;99.90
25450;DHT22;13371;52.080;5.624;2023-03-25T05:09:37;10.50;99.90
25450;DHT22;13371;52.080;5.624;2023-03-25T05:12:02;10.40;99.90
25450;DHT22;13371;52.080;5.624;2023-03-25T05:14:28;10.40;99.90
25450;DHT22;13371;52.080;5.624;2023-03-25T05:16:54;10.40;99.90
25450;DHT22;13371;52.080;5.624;2023-03-25T05:19:21;10.50;99.90
25450;DHT22;13371;52.080;5.624;2023-03-25T05:21:47;10.10;99.90
25450;DHT22;13371;52.080;5.624;2023-03-25T05:24:13;10.00;99.90
25450;DHT22;13371;52.080;5.624;2023-03-25T05:26:40;10.00;99.90
25450;DHT22;13371;52.080;5.624;2023-03-25T05:29:11;10.00;99.90
25450;DHT22;13371;52.080;5.624;2023-03-25T05:31:44;9.90;99.90
25450;DHT22;13371;52.080;5.624;2023-03-25T05:34:10;10.00;99.90
25450;DHT22;13371;52.080;5.624;2023-03-25T05:36:38;10.00;99.90
25450;DHT22;13371;52.080;5.624;2023-03-25T05:39:04;10.00;99.90
25450;DHT22;13371;52.080;5.624;2023-03-25T05:41:30;9.80;99.90
25450;DHT22;13371;52.080;5.624;2023-03-25T05:44:05;9.70;99.90
25450;DHT22;13371;52.080;5.624;2023-03-25T05:46:30;9.80;99.90
25450;DHT22;13371;52.080;5.624;2023-03-25T05:48:56;9.90;99.90
25450;DHT22;13371;52.080;5.624;2023-03-25T05:51:23;9.80;99.90
25450;DHT22;13371;52.080;5.624;2023-03-25T05:53:49;10.00;99.90
25450;DHT22;13371;52.080;5.624;2023-03-25T05:56:20;10.00;99.90
25450;DHT22;13371;52.080;5.624;2023-03-25T05:58:47;9.90;99.90
25450;DHT22;13371;52.080;5.624;2023-03-25T06:01:14;9.90;99.90
25450;DHT22;13371;52.080;5.624;2023-03-25T06:03:43;10.00;99.90
25450;DHT22;13371;52.080;5.624;2023-03-25T06:06:10;10.10;99.90
25450;DHT22;13371;52.080;5.624;2023-03-25T06:08:45;10.00;99.90
25450;DHT22;13371;52.080;5.624;2023-03-25T06:11:11;9.90;99.90
25450;DHT22;13371;52.080;5.624;2023-03-25T06:13:41;9.90;99.90
25450;DHT22;13371;52.080;5.624;2023-03-25T06:16:14;10.00;99.90
25450;DHT22;13371;52.080;5.624;2023-03-25T06:18:43;10.00;99.90
25450;DHT22;13371;52.080;5.624;2023-03-25T06:21:09;10.10;99.90
25450;DHT22;13371;52.080;5.624;2023-03-25T06:23:35;10.20;99.90
25450;DHT22;13371;52.080;5.624;2023-03-25T06:26:03;10.30;99.90
25450;DHT22;13371;52.080;5.624;2023-03-25T06:28:29;10.40;99.90
25450;DHT22;13371;52.080;5.624;2023-03-25T06:30:55;10.40;99.90
25450;DHT22;13371;52.080;5.624;2023-03-25T06:33:21;10.40;99.90
25450;DHT22;13371;52.080;5.624;2023-03-25T06:35:47;10.30;99.90
25450;DHT22;13371;52.080;5.624;2023-03-25T06:38:18;10.30;99.90
25450;DHT22;13371;52.080;5.624;2023-03-25T06:40:44;10.40;99.90
25450;DHT22;13371;52.080;5.624;2023-03-25T06:43:12;10.40;99.90
25450;DHT22;13371;52.080;5.624;2023-03-25T06:45:37;10.00;99.90
25450;DHT22;13371;52.080;5.624;2023-03-25T06:48:03;9.90;99.90
25450;DHT22;13371;52.080;5.624;2023-03-25T06:50:30;10.10;99.90
25450;DHT22;13371;52.080;5.624;2023-03-25T06:52:56;10.20;99.90
25450;DHT22;13371;52.080;5.624;2023-03-25T06:55:22;10.20;99.90
25450;DHT22;13371;52.080;5.624;2023-03-25T06:57:48;10.20;99.90
25450;DHT22;13371;52.080;5.624;2023-03-25T07:00:14;10.10;99.90
25450;DHT22;13371;52.080;5.624;2023-03-25T07:02:45;10.20;99.90
25450;DHT22;13371;52.080;5.624;2023-03-25T07:05:10;10.20;99.90
25450;DHT22;13371;52.080;5.624;2023-03-25T07:07:36;10.30;99.90
25450;DHT22;13371;52.080;5.624;2023-03-25T07:10:02;10.40;99.90
25450;DHT22;13371;52.080;5.624;2023-03-25T07:12:27;10.50;99.90
25450;DHT22;13371;52.080;5.624;2023-03-25T07:14:54;10.20;99.90
25450;DHT22;13371;52.080;5.624;2023-03-25T07:17:22;10.00;99.90
25450;DHT22;13371;52.080;5.624;2023-03-25T07:19:48;10.10;99.90
25450;DHT22;13371;52.080;5.624;2023-03-25T07:22:13;10.30;99.90
25450;DHT22;13371;52.080;5.624;2023-03-25T07:24:39;10.40;99.90
25450;DHT22;13371;52.080;5.624;2023-03-25T07:27:05;10.50;99.90
25450;DHT22;13371;52.080;5.624;2023-03-25T07:29:31;10.60;99.90
25450;DHT22;13371;52.080;5.624;2023-03-25T07:31:56;10.40;99.90
25450;DHT22;13371;52.080;5.624;2023-03-25T07:34:22;10.50;99.90
25450;DHT22;13371;52.080;5.624;2023-03-25T07:36:48;10.20;99.90
25450;DHT22;13371;52.080;5.624;2023-03-25T07:39:13;10.20;99.90
25450;DHT22;13371;52.080;5.624;2023-03-25T07:41:39;10.10;99.90
25450;DHT22;13371;52.080;5.624;2023-03-25T07:44:07;10.10;99.90
25450;DHT22;13371;52.080;5.624;2023-03-25T07:46:32;10.00;99.90
25450;DHT22;13371;52.080;5.624;2023-03-25T07:48:58;10.20;99.90
25450;DHT22;13371;52.080;5.624;2023-03-25T07:51:24;10.30;99.90
25450;DHT22;13371;52.080;5.624;2023-03-25T07:53:49;10.20;99.90
25450;DHT22;13371;52.080;5.624;2023-03-25T07:56:15;10.20;99.90
25450;DHT22;13371;52.080;5.624;2023-03-25T07:58:41;10.20;99.90
25450;DHT22;13371;52.080;5.624;2023-03-25T08:01:09;10.10;99.90
25450;DHT22;13371;52.080;5.624;2023-03-25T08:03:34;10.00;99.90
25450;DHT22;13371;52.080;5.624;2023-03-25T08:06:03;10.20;99.90
25450;DHT22;13371;52.080;5.624;2023-03-25T08:08:29;10.30;99.90
25450;DHT22;13371;52.080;5.624;2023-03-25T08:10:55;10.50;99.90
25450;DHT22;13371;52.080;5.624;2023-03-25T08:13:21;10.40;99.90
25450;DHT22;13371;52.080;5.624;2023-03-25T08:15:47;10.30;99.90
25450;DHT22;13371;52.080;5.624;2023-03-25T08:18:12;10.50;99.90
25450;DHT22;13371;52.080;5.624;2023-03-25T08:20:38;10.50;99.90
25450;DHT22;13371;52.080;5.624;2023-03-25T08:23:05;10.50;99.90
25450;DHT22;13371;52.080;5.624;2023-03-25T08:25:35;10.40;99.90
25450;DHT22;13371;52.080;5.624;2023-03-25T08:28:01;10.40;99.90
25450;DHT22;13371;52.080;5.624;2023-03-25T08:30:27;10.60;99.90
25450;DHT22;13371;52.080;5.624;2023-03-25T08:32:52;10.70;99.90
25450;DHT22;13371;52.080;5.624;2023-03-25T08:35:22;10.80;99.90
25450;DHT22;13371;52.080;5.624;2023-03-25T08:37:48;10.70;99.90
25450;DHT22;13371;52.080;5.624;2023-03-25T08:40:14;10.70;99.90
25450;DHT22;13371;52.080;5.624;2023-03-25T08:42:44;10.60;99.90
25450;DHT22;13371;52.080;5.624;2023-03-25T08:45:11;10.60;99.90
25450;DHT22;13371;52.080;5.624;2023-03-25T08:47:37;10.40;99.90
25450;DHT22;13371;52.080;5.624;2023-03-25T08:50:03;10.60;99.90
25450;DHT22;13371;52.080;5.624;2023-03-25T08:52:29;10.50;99.90
25450;DHT22;13371;52.080;5.624;2023-03-25T08:54:54;10.40;99.90
25450;DHT22;13371;52.080;5.624;2023-03-25T08:57:20;10.40;99.90
25450;DHT22;13371;52.080;5.624;2023-03-25T08:59:46;10.50;99.90
25450;DHT22;13371;52.080;5.624;2023-03-25T09:02:12;10.70;99.90
25450;DHT22;13371;52.080;5.624;2023-03-25T09:04:37;10.80;99.90
25450;DHT22;13371;52.080;5.624;2023-03-25T09:07:04;11.10;99.90
25450;DHT22;13371;52.080;5.624;2023-03-25T09:09:32;11.10;99.90
25450;DHT22;13371;52.080;5.624;2023-03-25T09:11:57;10.90;99.90
25450;DHT22;13371;52.080;5.624;2023-03-25T09:14:23;10.60;99.90
25450;DHT22;13371;52.080;5.624;2023-03-25T09:16:49;10.70;99.90
25450;DHT22;13371;52.080;5.624;2023-03-25T09:19:14;10.70;99.90
25450;DHT22;13371;52.080;5.624;2023-03-25T09:21:40;10.80;99.90
25450;DHT22;13371;52.080;5.624;2023-03-25T09:24:07;10.90;99.90
25450;DHT22;13371;52.080;5.624;2023-03-25T09:26:33;10.80;99.90
25450;DHT22;13371;52.080;5.624;2023-03-25T09:28:59;10.90;99.90
25450;DHT22;13371;52.080;5.624;2023-03-25T09:31:25;11.00;99.90
25450;DHT22;13371;52.080;5.624;2023-03-25T09:33:51;11.30;99.90
25450;DHT22;13371;52.080;5.624;2023-03-25T09:36:16;11.00;99.90
25450;DHT22;13371;52.080;5.624;2023-03-25T09:38:44;10.80;99.90
25450;DHT22;13371;52.080;5.624;2023-03-25T09:46:40;10.90;99.90
25450;DHT22;13371;52.080;5.624;2023-03-25T09:49:15;10.70;99.90
25450;DHT22;13371;52.080;5.624;2023-03-25T09:51:44;10.60;99.90
25450;DHT22;13371;52.080;5.624;2023-03-25T09:54:31;10.70;99.90
25450;DHT22;13371;52.080;5.624;2023-03-25T09:57:03;10.90;99.90
25450;DHT22;13371;52.080;5.624;2023-03-25T09:59:46;11.00;99.90
25450;DHT22;13371;52.080;5.624;2023-03-25T10:05:19;10.60;99.90
25450;DHT22;13371;52.080;5.624;2023-03-25T10:16:04;11.10;99.90
25450;DHT22;13371;52.080;5.624;2023-03-25T10:22:03;10.90;99.90
25450;DHT22;13371;52.080;5.624;2023-03-25T10:24:42;11.20;99.90
25450;DHT22;13371;52.080;5.624;2023-03-25T10:30:12;11.40;99.90
25450;DHT22;13371;52.080;5.624;2023-03-25T10:32:44;11.30;99.90
25450;DHT22;13371;52.080;5.624;2023-03-25T10:35:16;11.30;99.90
25450;DHT22;13371;52.080;5.624;2023-03-25T10:37:43;11.60;99.90
25450;DHT22;13371;52.080;5.624;2023-03-25T10:42:47;11.90;99.90
25450;DHT22;13371;52.080;5.624;2023-03-25T10:45:21;11.70;99.90
25450;DHT22;13371;52.080;5.624;2023-03-25T10:47:48;11.50;99.90
25450;DHT22;13371;52.080;5.624;2023-03-25T10:50:16;11.40;99.90
25450;DHT22;13371;52.080;5.624;2023-03-25T10:52:44;11.10;99.90
25450;DHT22;13371;52.080;5.624;2023-03-25T10:55:24;11.30;99.90
25450;DHT22;13371;52.080;5.624;2023-03-25T10:57:51;11.10;99.90
25450;DHT22;13371;52.080;5.624;2023-03-25T11:00:21;11.20;99.90
25450;DHT22;13371;52.080;5.624;2023-03-25T11:02:49;11.20;99.90
25450;DHT22;13371;52.080;5.624;2023-03-25T11:05:18;11.40;99.90
25450;DHT22;13371;52.080;5.624;2023-03-25T11:08:07;11.40;99.90
25450;DHT22;13371;52.080;5.624;2023-03-25T11:10:34;11.50;99.90
25450;DHT22;13371;52.080;5.624;2023-03-25T11:13:00;11.50;99.90
25450;DHT22;13371;52.080;5.624;2023-03-25T11:15:33;11.50;99.90
25450;DHT22;13371;52.080;5.624;2023-03-25T11:18:35;11.30;99.90
25450;DHT22;13371;52.080;5.624;2023-03-25T11:21:07;10.90;99.90
25450;DHT22;13371;52.080;5.624;2023-03-25T11:23:35;11.00;99.90
25450;DHT22;13371;52.080;5.624;2023-03-25T11:26:07;11.20;99.90
25450;DHT22;13371;52.080;5.624;2023-03-25T11:28:48;11.20;99.90
25450;DHT22;13371;52.080;5.624;2023-03-25T11:31:35;11.00;99.90
25450;DHT22;13371;52.080;5.624;2023-03-25T11:36:39;11.10;99.90
25450;DHT22;13371;52.080;5.624;2023-03-25T11:39:40;11.00;99.90
25450;DHT22;13371;52.080;5.624;2023-03-25T11:44:41;11.00;99.90
25450;DHT22;13371;52.080;5.624;2023-03-25T11:47:09;11.00;99.90
25450;DHT22;13371;52.080;5.624;2023-03-25T11:49:39;10.90;99.90
25450;DHT22;13371;52.080;5.624;2023-03-25T11:52:16;11.00;99.90
25450;DHT22;13371;52.080;5.624;2023-03-25T11:54:44;11.30;99.90
25450;DHT22;13371;52.080;5.624;2023-03-25T11:57:13;11.70;99.90
25450;DHT22;13371;52.080;5.624;2023-03-25T11:59:48;11.90;99.90
25450;DHT22;13371;52.080;5.624;2023-03-25T12:02:21;12.10;99.90
25450;DHT22;13371;52.080;5.624;2023-03-25T12:05:11;11.90;99.90
25450;DHT22;13371;52.080;5.624;2023-03-25T12:07:45;11.70;99.90
25450;DHT22;13371;52.080;5.624;2023-03-25T12:10:46;11.70;99.90
25450;DHT22;13371;52.080;5.624;2023-03-25T12:16:39;11.60;99.90
25450;DHT22;13371;52.080;5.624;2023-03-25T12:18:53;11.60;99.90
25450;DHT22;13371;52.080;5.624;2023-03-25T12:27:46;11.50;99.90
25450;DHT22;13371;52.080;5.624;2023-03-25T12:38:43;11.50;99.90
25450;DHT22;13371;52.080;5.624;2023-03-25T12:42:08;11.70;99.90
25450;DHT22;13371;52.080;5.624;2023-03-25T12:44:50;12.10;99.90
25450;DHT22;13371;52.080;5.624;2023-03-25T12:47:34;12.30;99.90
25450;DHT22;13371;52.080;5.624;2023-03-25T13:01:12;12.60;99.90
25450;DHT22;13371;52.080;5.624;2023-03-25T13:06:54;12.30;99.90
25450;DHT22;13371;52.080;5.624;2023-03-25T13:09:29;12.20;99.90
25450;DHT22;13371;52.080;5.624;2023-03-25T13:12:00;12.20;99.90
25450;DHT22;13371;52.080;5.624;2023-03-25T13:14:55;12.30;99.90
25450;DHT22;13371;52.080;5.624;2023-03-25T13:17:46;12.60;99.90
25450;DHT22;13371;52.080;5.624;2023-03-25T13:20:15;12.50;99.90
25450;DHT22;13371;52.080;5.624;2023-03-25T13:22:45;12.70;99.90
25450;DHT22;13371;52.080;5.624;2023-03-25T13:28:06;12.30;99.90
25450;DHT22;13371;52.080;5.624;2023-03-25T13:30:38;12.40;99.90
25450;DHT22;13371;52.080;5.624;2023-03-25T13:33:18;12.90;99.90
25450;DHT22;13371;52.080;5.624;2023-03-25T13:38:23;13.50;99.10
25450;DHT22;13371;52.080;5.624;2023-03-25T13:41:06;13.20;99.10
25450;DHT22;13371;52.080;5.624;2023-03-25T13:46:17;12.70;99.20
25450;DHT22;13371;52.080;5.624;2023-03-25T13:48:51;12.70;99.40
25450;DHT22;13371;52.080;5.624;2023-03-25T13:51:18;12.60;99.90
25450;DHT22;13371;52.080;5.624;2023-03-25T13:54:04;12.80;99.70
25450;DHT22;13371;52.080;5.624;2023-03-25T14:02:40;13.20;98.50
25450;DHT22;13371;52.080;5.624;2023-03-25T14:08:18;13.30;99.80
25450;DHT22;13371;52.080;5.624;2023-03-25T14:10:47;13.30;98.10
25450;DHT22;13371;52.080;5.624;2023-03-25T14:13:38;13.70;97.10
25450;DHT22;13371;52.080;5.624;2023-03-25T14:16:07;13.70;97.20
25450;DHT22;13371;52.080;5.624;2023-03-25T14:18:43;13.70;96.80
25450;DHT22;13371;52.080;5.624;2023-03-25T14:23:45;12.80;99.80
25450;DHT22;13371;52.080;5.624;2023-03-25T14:26:14;12.70;99.90
25450;DHT22;13371;52.080;5.624;2023-03-25T14:28:43;12.00;99.90
25450;DHT22;13371;52.080;5.624;2023-03-25T14:36:30;10.70;99.90
25450;DHT22;13371;52.080;5.624;2023-03-25T14:44:29;12.10;99.90
25450;DHT22;13371;52.080;5.624;2023-03-25T14:47:24;12.40;99.90
25450;DHT22;13371;52.080;5.624;2023-03-25T14:50:00;12.80;99.90
25450;DHT22;13371;52.080;5.624;2023-03-25T14:52:37;12.80;99.90
25450;DHT22;13371;52.080;5.624;2023-03-25T14:55:52;12.60;99.90
25450;DHT22;13371;52.080;5.624;2023-03-25T14:58:17;12.60;99.90
25450;DHT22;13371;52.080;5.624;2023-03-25T15:00:57;12.90;99.90
25450;DHT22;13371;52.080;5.624;2023-03-25T15:03:32;12.70;99.90
25450;DHT22;13371;52.080;5.624;2023-03-25T15:05:59;12.70;99.90
25450;DHT22;13371;52.080;5.624;2023-03-25T15:08:55;13.00;99.90
25450;DHT22;13371;52.080;5.624;2023-03-25T15:11:42;13.00;99.90
25450;DHT22;13371;52.080;5.624;2023-03-25T15:14:14;13.00;99.90
25450;DHT22;13371;52.080;5.624;2023-03-25T15:19:17;12.90;99.60
25450;DHT22;13371;52.080;5.624;2023-03-25T15:24:32;12.60;99.90
25450;DHT22;13371;52.080;5.624;2023-03-25T15:27:23;12.50;99.90
25450;DHT22;13371;52.080;5.624;2023-03-25T15:32:37;12.70;99.90
25450;DHT22;13371;52.080;5.624;2023-03-25T15:46:31;11.00;99.90
25450;DHT22;13371;52.080;5.624;2023-03-25T15:49:14;10.80;99.90
25450;DHT22;13371;52.080;5.624;2023-03-25T15:54:49;11.00;99.90
25450;DHT22;13371;52.080;5.624;2023-03-25T15:57:31;11.00;99.90
25450;DHT22;13371;52.080;5.624;2023-03-25T16:00:14;11.00;99.90
25450;DHT22;13371;52.080;5.624;2023-03-25T16:05:34;10.70;99.90
25450;DHT22;13371;52.080;5.624;2023-03-25T16:08:09;10.70;99.90
25450;DHT22;13371;52.080;5.624;2023-03-25T16:10:36;10.80;99.90
25450;DHT22;13371;52.080;5.624;2023-03-25T16:13:10;11.10;99.90
25450;DHT22;13371;52.080;5.624;2023-03-25T16:15:37;11.30;99.90
25450;DHT22;13371;52.080;5.624;2023-03-25T16:18:06;11.20;99.90
25450;DHT22;13371;52.080;5.624;2023-03-25T16:20:34;11.40;99.90
25450;DHT22;13371;52.080;5.624;2023-03-25T16:23:01;11.40;99.90
25450;DHT22;13371;52.080;5.624;2023-03-25T16:25:37;11.50;99.90
25450;DHT22;13371;52.080;5.624;2023-03-25T16:28:06;11.70;99.90
25450;DHT22;13371;52.080;5.624;2023-03-25T16:30:35;12.00;99.90
25450;DHT22;13371;52.080;5.624;2023-03-25T16:35:37;11.90;99.90
25450;DHT22;13371;52.080;5.624;2023-03-25T16:38:04;11.80;99.90
25450;DHT22;13371;52.080;5.624;2023-03-25T16:40:32;11.90;99.90
25450;DHT22;13371;52.080;5.624;2023-03-25T16:45:39;12.00;99.90
25450;DHT22;13371;52.080;5.624;2023-03-25T16:48:09;11.80;99.90
25450;DHT22;13371;52.080;5.624;2023-03-25T16:50:38;11.50;99.90
25450;DHT22;13371;52.080;5.624;2023-03-25T16:53:05;11.30;99.90
25450;DHT22;13371;52.080;5.624;2023-03-25T16:58:14;10.90;99.90
25450;DHT22;13371;52.080;5.624;2023-03-25T17:00:40;10.80;99.90
25450;DHT22;13371;52.080;5.624;2023-03-25T17:03:15;11.00;99.90
25450;DHT22;13371;52.080;5.624;2023-03-25T17:06:03;10.90;99.90
25450;DHT22;13371;52.080;5.624;2023-03-25T17:08:30;10.80;99.90
25450;DHT22;13371;52.080;5.624;2023-03-25T17:10:57;11.00;99.90
25450;DHT22;13371;52.080;5.624;2023-03-25T17:13:30;11.00;99.90
25450;DHT22;13371;52.080;5.624;2023-03-25T17:15:56;10.80;99.90
25450;DHT22;13371;52.080;5.624;2023-03-25T17:18:26;10.80;99.90
25450;DHT22;13371;52.080;5.624;2023-03-25T17:20:55;10.70;99.90
25450;DHT22;13371;52.080;5.624;2023-03-25T17:23:55;10.70;99.90
25450;DHT22;13371;52.080;5.624;2023-03-25T17:26:23;10.50;99.90
25450;DHT22;13371;52.080;5.624;2023-03-25T17:34:18;10.60;99.90
25450;DHT22;13371;52.080;5.624;2023-03-25T17:36:47;10.60;99.90
25450;DHT22;13371;52.080;5.624;2023-03-25T17:39:20;10.50;99.90
25450;DHT22;13371;52.080;5.624;2023-03-25T17:41:46;10.70;99.90
25450;DHT22;13371;52.080;5.624;2023-03-25T17:44:14;10.80;99.90
25450;DHT22;13371;52.080;5.624;2023-03-25T17:46:41;10.70;99.90
25450;DHT22;13371;52.080;5.624;2023-03-25T17:49:17;10.80;99.90
25450;DHT22;13371;52.080;5.624;2023-03-25T17:51:44;10.90;99.90
25450;DHT22;13371;52.080;5.624;2023-03-25T17:54:11;11.10;99.90
25450;DHT22;13371;52.080;5.624;2023-03-25T17:56:37;11.20;99.90
25450;DHT22;13371;52.080;5.624;2023-03-25T17:59:06;11.30;99.90
25450;DHT22;13371;52.080;5.624;2023-03-25T18:01:32;11.10;99.90
25450;DHT22;13371;52.080;5.624;2023-03-25T18:03:59;11.50;99.90
25450;DHT22;13371;52.080;5.624;2023-03-25T18:06:25;11.50;99.90
25450;DHT22;13371;52.080;5.624;2023-03-25T18:08:51;11.40;99.90
25450;DHT22;13371;52.080;5.624;2023-03-25T18:11:17;11.40;99.90
25450;DHT22;13371;52.080;5.624;2023-03-25T18:13:43;11.10;99.90
25450;DHT22;13371;52.080;5.624;2023-03-25T18:16:16;11.40;99.90
25450;DHT22;13371;52.080;5.624;2023-03-25T18:18:42;11.30;99.90
25450;DHT22;13371;52.080;5.624;2023-03-25T18:21:12;11.50;99.90
25450;DHT22;13371;52.080;5.624;2023-03-25T18:23:38;11.50;99.90
25450;DHT22;13371;52.080;5.624;2023-03-25T18:26:09;11.40;99.90
25450;DHT22;13371;52.080;5.624;2023-03-25T18:28:36;10.90;99.90
25450;DHT22;13371;52.080;5.624;2023-03-25T18:31:01;10.90;99.90
25450;DHT22;13371;52.080;5.624;2023-03-25T18:33:27;11.00;99.90